createdAt,value
2023-08-15T00:00:12.037Z,1020.81
2023-08-15T00:00:43.025Z,1020.81
2023-08-15T00:01:13.538Z,1020.81
2023-08-15T00:01:44.456Z,1020.81
2023-08-15T00:02:15.420Z,1020.80
2023-08-15T00:02:46.365Z,1020.79
2023-08-15T00:03:17.364Z,1020.78
2023-08-15T00:03:47.976Z,1020.77
2023-08-15T00:04:18.435Z,1020.77
2023-08-15T00:04:49.343Z,1020.76
2023-08-15T00:05:18.978Z,1020.75
2023-08-15T00:05:49.841Z,1020.75
2023-08-15T00:06:20.444Z,1020.74
2023-08-15T00:06:50.993Z,1020.74
2023-08-15T00:07:23.043Z,1020.74
2023-08-15T00:07:53.490Z,1020.74
2023-08-15T00:08:24.417Z,1020.74
2023-08-15T00:08:55.317Z,1020.74
2023-08-15T00:09:26.271Z,1020.73
2023-08-15T00:09:57.167Z,1020.73
2023-08-15T00:10:28.047Z,1020.72
2023-08-15T00:10:58.870Z,1020.72
2023-08-15T00:11:29.780Z,1020.72
2023-08-15T00:12:00.747Z,1020.72
2023-08-15T00:12:31.659Z,1020.72
2023-08-15T00:13:02.568Z,1020.72
2023-08-15T00:13:33.478Z,1020.72
2023-08-15T00:14:04.415Z,1020.72
2023-08-15T00:14:35.181Z,1020.72
2023-08-15T00:15:07.069Z,1020.72
2023-08-15T00:15:36.887Z,1020.72
2023-08-15T00:16:07.814Z,1020.71
2023-08-15T00:16:38.769Z,1020.70
2023-08-15T00:17:09.732Z,1020.70
2023-08-15T00:17:40.643Z,1020.69
2023-08-15T00:18:11.537Z,1020.69
2023-08-15T00:18:42.473Z,1020.68
2023-08-15T00:19:13.362Z,1020.68
2023-08-15T00:19:44.271Z,1020.68
2023-08-15T00:20:15.199Z,1020.67
2023-08-15T00:20:46.090Z,1020.67
2023-08-15T00:21:16.916Z,1020.67
2023-08-15T00:21:47.809Z,1020.67
2023-08-15T00:22:17.317Z,1020.68
2023-08-15T00:22:49.242Z,1020.68
2023-08-15T00:23:20.165Z,1020.68
2023-08-15T00:23:51.070Z,1020.68
2023-08-15T00:24:20.581Z,1020.68
2023-08-15T00:24:52.585Z,1020.67
2023-08-15T00:25:23.490Z,1020.68
2023-08-15T00:25:54.428Z,1020.67
2023-08-15T00:26:25.312Z,1020.67
2023-08-15T00:26:56.206Z,1020.67
2023-08-15T00:27:27.125Z,1020.68
2023-08-15T00:27:58.034Z,1020.69
2023-08-15T00:28:28.928Z,1020.71
2023-08-15T00:28:59.837Z,1020.72
2023-08-15T00:29:30.766Z,1020.75
2023-08-15T00:30:01.776Z,1020.77
2023-08-15T00:30:32.513Z,1020.80
2023-08-15T00:31:03.483Z,1020.81
2023-08-15T00:31:33.930Z,1020.83
2023-08-15T00:32:04.821Z,1020.84
2023-08-15T00:32:35.734Z,1020.84
2023-08-15T00:33:06.663Z,1020.85
2023-08-15T00:33:37.574Z,1020.86
2023-08-15T00:34:08.464Z,1020.87
2023-08-15T00:34:39.384Z,1020.89
2023-08-15T00:35:10.339Z,1020.90
2023-08-15T00:35:41.300Z,1020.92
2023-08-15T00:36:12.190Z,1020.94
2023-08-15T00:36:43.082Z,1020.96
2023-08-15T00:37:13.880Z,1020.98
2023-08-15T00:37:44.804Z,1021.01
2023-08-15T00:38:15.712Z,1021.03
2023-08-15T00:38:46.608Z,1021.06
2023-08-15T00:39:17.519Z,1021.08
2023-08-15T00:39:48.420Z,1021.09
2023-08-15T00:40:19.384Z,1021.11
2023-08-15T00:40:50.312Z,1021.13
2023-08-15T00:41:21.242Z,1021.14
2023-08-15T00:41:52.169Z,1021.14
2023-08-15T00:42:23.066Z,1021.14
2023-08-15T00:42:53.979Z,1021.13
2023-08-15T00:43:24.895Z,1021.12
2023-08-15T00:43:55.843Z,1021.10
2023-08-15T00:44:26.776Z,1021.08
2023-08-15T00:44:56.610Z,1021.06
2023-08-15T00:45:28.536Z,1021.06
2023-08-15T00:45:59.430Z,1021.05
2023-08-15T00:46:29.875Z,1021.06
2023-08-15T00:47:01.812Z,1021.06
2023-08-15T00:47:31.655Z,1021.07
2023-08-15T00:48:02.673Z,1021.06
2023-08-15T00:48:33.085Z,1021.06
2023-08-15T00:49:03.906Z,1021.05
2023-08-15T00:49:34.791Z,1021.05
2023-08-15T00:50:05.678Z,1021.04
2023-08-15T00:50:36.594Z,1021.05
2023-08-15T00:51:07.532Z,1021.05
2023-08-15T00:51:38.438Z,1021.06
2023-08-15T00:52:09.322Z,1021.06
2023-08-15T00:52:40.235Z,1021.06
2023-08-15T00:53:11.125Z,1021.06
2023-08-15T00:53:42.014Z,1021.05
2023-08-15T00:54:12.894Z,1021.03
2023-08-15T00:54:43.824Z,1021.00
2023-08-15T00:55:14.346Z,1020.98
2023-08-15T00:55:45.280Z,1020.95
2023-08-15T00:56:16.166Z,1020.93
2023-08-15T00:56:47.082Z,1020.92
2023-08-15T00:57:18.229Z,1020.91
2023-08-15T00:57:48.959Z,1020.91
2023-08-15T00:58:19.871Z,1020.92
2023-08-15T00:58:50.796Z,1020.93
2023-08-15T00:59:21.718Z,1020.96
2023-08-15T00:59:52.679Z,1020.99
2023-08-15T01:00:23.657Z,1021.02
2023-08-15T01:00:53.293Z,1021.05
2023-08-15T01:01:25.322Z,1021.05
2023-08-15T01:01:55.812Z,1021.03
2023-08-15T01:02:26.723Z,1021.01
2023-08-15T01:02:57.747Z,1020.98
2023-08-15T01:03:28.589Z,1020.96
2023-08-15T01:03:59.037Z,1020.95
2023-08-15T01:04:29.952Z,1020.94
2023-08-15T01:05:00.891Z,1020.95
2023-08-15T01:05:31.785Z,1020.96
2023-08-15T01:06:02.763Z,1020.98
2023-08-15T01:06:33.668Z,1020.99
2023-08-15T01:07:04.599Z,1021.01
2023-08-15T01:07:35.502Z,1021.02
2023-08-15T01:08:06.431Z,1021.02
2023-08-15T01:08:37.357Z,1021.01
2023-08-15T01:09:08.285Z,1021.00
2023-08-15T01:09:39.196Z,1020.98
2023-08-15T01:10:10.102Z,1020.98
2023-08-15T01:10:41.009Z,1020.99
2023-08-15T01:11:11.926Z,1021.00
2023-08-15T01:11:42.817Z,1021.01
2023-08-15T01:12:13.750Z,1021.00
2023-08-15T01:12:44.678Z,1020.99
2023-08-15T01:13:15.574Z,1020.99
2023-08-15T01:13:46.471Z,1020.97
2023-08-15T01:14:17.368Z,1020.97
2023-08-15T01:14:48.295Z,1020.97
2023-08-15T01:15:19.195Z,1020.97
2023-08-15T01:15:50.203Z,1020.97
2023-08-15T01:16:20.657Z,1020.97
2023-08-15T01:16:51.584Z,1020.96
2023-08-15T01:17:22.782Z,1020.95
2023-08-15T01:17:53.286Z,1020.94
2023-08-15T01:18:24.223Z,1020.93
2023-08-15T01:18:53.766Z,1020.92
2023-08-15T01:19:25.685Z,1020.91
2023-08-15T01:19:56.593Z,1020.90
2023-08-15T01:20:27.521Z,1020.90
2023-08-15T01:20:58.435Z,1020.92
2023-08-15T01:21:29.361Z,1020.94
2023-08-15T01:22:00.296Z,1020.94
2023-08-15T01:22:31.188Z,1020.92
2023-08-15T01:23:02.117Z,1020.91
2023-08-15T01:23:33.011Z,1020.92
2023-08-15T01:24:03.899Z,1020.91
2023-08-15T01:24:34.817Z,1020.90
2023-08-15T01:25:05.721Z,1020.91
2023-08-15T01:25:36.669Z,1020.91
2023-08-15T01:26:07.606Z,1020.92
2023-08-15T01:26:37.228Z,1020.91
2023-08-15T01:27:09.129Z,1020.90
2023-08-15T01:27:40.061Z,1020.91
2023-08-15T01:28:10.998Z,1020.92
2023-08-15T01:28:41.911Z,1020.93
2023-08-15T01:29:12.804Z,1020.94
2023-08-15T01:29:43.726Z,1020.93
2023-08-15T01:30:14.657Z,1020.91
2023-08-15T01:30:45.613Z,1020.91
2023-08-15T01:31:16.542Z,1020.91
2023-08-15T01:31:47.517Z,1020.91
2023-08-15T01:32:18.000Z,1020.91
2023-08-15T01:32:48.953Z,1020.91
2023-08-15T01:33:19.858Z,1020.91
2023-08-15T01:33:50.803Z,1020.91
2023-08-15T01:34:21.710Z,1020.91
2023-08-15T01:34:51.366Z,1020.90
2023-08-15T01:35:23.285Z,1020.89
2023-08-15T01:35:54.163Z,1020.90
2023-08-15T01:36:25.046Z,1020.90
2023-08-15T01:36:55.954Z,1020.90
2023-08-15T01:37:26.860Z,1020.90
2023-08-15T01:37:57.709Z,1020.89
2023-08-15T01:38:28.618Z,1020.87
2023-08-15T01:38:59.517Z,1020.86
2023-08-15T01:39:30.409Z,1020.84
2023-08-15T01:40:01.300Z,1020.84
2023-08-15T01:40:32.213Z,1020.83
2023-08-15T01:41:03.148Z,1020.82
2023-08-15T01:41:34.049Z,1020.80
2023-08-15T01:42:05.108Z,1020.80
2023-08-15T01:42:35.491Z,1020.80
2023-08-15T01:43:05.013Z,1020.79
2023-08-15T01:43:36.922Z,1020.78
2023-08-15T01:44:07.828Z,1020.78
2023-08-15T01:44:37.411Z,1020.78
2023-08-15T01:45:09.341Z,1020.79
2023-08-15T01:45:40.291Z,1020.79
2023-08-15T01:46:13.609Z,1020.80
2023-08-15T01:46:42.000Z,1020.81
2023-08-15T01:47:12.920Z,1020.81
2023-08-15T01:47:43.868Z,1020.81
2023-08-15T01:48:14.789Z,1020.81
2023-08-15T01:48:44.401Z,1020.80
2023-08-15T01:49:16.333Z,1020.79
2023-08-15T01:49:47.329Z,1020.79
2023-08-15T01:50:18.242Z,1020.79
2023-08-15T01:50:49.134Z,1020.80
2023-08-15T01:51:20.056Z,1020.81
2023-08-15T01:51:51.011Z,1020.82
2023-08-15T01:52:21.941Z,1020.83
2023-08-15T01:52:52.866Z,1020.83
2023-08-15T01:53:22.489Z,1020.84
2023-08-15T01:53:53.526Z,1020.83
2023-08-15T01:54:25.428Z,1020.83
2023-08-15T01:54:56.328Z,1020.83
2023-08-15T01:55:27.216Z,1020.83
2023-08-15T01:55:58.109Z,1020.83
2023-08-15T01:56:29.003Z,1020.83
2023-08-15T01:56:59.947Z,1020.81
2023-08-15T01:57:29.598Z,1020.81
2023-08-15T01:58:01.485Z,1020.81
2023-08-15T01:58:32.386Z,1020.81
2023-08-15T01:59:02.414Z,1020.80
2023-08-15T01:59:33.031Z,1020.78
2023-08-15T02:00:05.021Z,1020.78
2023-08-15T02:00:35.984Z,1020.77
2023-08-15T02:01:06.954Z,1020.77
2023-08-15T02:01:37.897Z,1020.77
2023-08-15T02:02:08.841Z,1020.77
2023-08-15T02:02:39.782Z,1020.77
2023-08-15T02:03:10.685Z,1020.77
2023-08-15T02:03:41.644Z,1020.76
2023-08-15T02:04:12.545Z,1020.75
2023-08-15T02:04:42.120Z,1020.75
2023-08-15T02:05:14.056Z,1020.75
2023-08-15T02:05:44.905Z,1020.76
2023-08-15T02:06:15.856Z,1020.76
2023-08-15T02:06:46.745Z,1020.76
2023-08-15T02:07:17.728Z,1020.77
2023-08-15T02:07:48.202Z,1020.78
2023-08-15T02:08:19.083Z,1020.78
2023-08-15T02:08:49.980Z,1020.79
2023-08-15T02:09:20.912Z,1020.79
2023-08-15T02:09:51.800Z,1020.80
2023-08-15T02:10:21.313Z,1020.80
2023-08-15T02:10:53.347Z,1020.79
2023-08-15T02:11:24.006Z,1020.78
2023-08-15T02:11:54.891Z,1020.77
2023-08-15T02:12:25.801Z,1020.76
2023-08-15T02:12:56.751Z,1020.75
2023-08-15T02:13:26.345Z,1020.73
2023-08-15T02:13:56.933Z,1020.72
2023-08-15T02:14:28.831Z,1020.72
2023-08-15T02:14:59.733Z,1020.70
2023-08-15T02:15:30.678Z,1020.69
2023-08-15T02:16:01.733Z,1020.68
2023-08-15T02:16:31.435Z,1020.67
2023-08-15T02:17:03.331Z,1020.67
2023-08-15T02:17:34.269Z,1020.67
2023-08-15T02:18:05.233Z,1020.67
2023-08-15T02:18:36.148Z,1020.66
2023-08-15T02:19:07.057Z,1020.66
2023-08-15T02:19:36.571Z,1020.67
2023-08-15T02:20:08.510Z,1020.67
2023-08-15T02:20:39.328Z,1020.67
2023-08-15T02:21:10.270Z,1020.67
2023-08-15T02:21:41.184Z,1020.67
2023-08-15T02:22:12.098Z,1020.67
2023-08-15T02:22:43.005Z,1020.68
2023-08-15T02:23:13.919Z,1020.69
2023-08-15T02:23:44.808Z,1020.68
2023-08-15T02:24:15.708Z,1020.68
2023-08-15T02:24:45.236Z,1020.68
2023-08-15T02:25:15.764Z,1020.67
2023-08-15T02:25:47.689Z,1020.66
2023-08-15T02:26:18.589Z,1020.65
2023-08-15T02:26:49.510Z,1020.64
2023-08-15T02:27:20.615Z,1020.63
2023-08-15T02:27:51.133Z,1020.62
2023-08-15T02:28:22.063Z,1020.62
2023-08-15T02:28:52.977Z,1020.62
2023-08-15T02:29:23.877Z,1020.62
2023-08-15T02:29:54.789Z,1020.62
2023-08-15T02:30:25.691Z,1020.61
2023-08-15T02:30:56.591Z,1020.62
2023-08-15T02:31:26.163Z,1020.62
2023-08-15T02:31:58.068Z,1020.62
2023-08-15T02:32:29.049Z,1020.62
2023-08-15T02:32:59.492Z,1020.61
2023-08-15T02:33:30.404Z,1020.61
2023-08-15T02:34:01.308Z,1020.60
2023-08-15T02:34:32.224Z,1020.59
2023-08-15T02:35:03.164Z,1020.59
2023-08-15T02:35:34.060Z,1020.59
2023-08-15T02:36:05.015Z,1020.59
2023-08-15T02:36:35.919Z,1020.60
2023-08-15T02:37:06.841Z,1020.60
2023-08-15T02:37:37.731Z,1020.60
2023-08-15T02:38:07.344Z,1020.59
2023-08-15T02:38:39.259Z,1020.59
2023-08-15T02:39:10.309Z,1020.60
2023-08-15T02:39:39.921Z,1020.61
2023-08-15T02:40:11.861Z,1020.61
2023-08-15T02:40:42.747Z,1020.61
2023-08-15T02:41:13.680Z,1020.61
2023-08-15T02:41:43.305Z,1020.61
2023-08-15T02:42:15.222Z,1020.61
2023-08-15T02:42:46.124Z,1020.61
2023-08-15T02:43:17.027Z,1020.61
2023-08-15T02:43:46.654Z,1020.60
2023-08-15T02:44:18.444Z,1020.60
2023-08-15T02:44:49.333Z,1020.59
2023-08-15T02:45:20.247Z,1020.58
2023-08-15T02:45:51.146Z,1020.57
2023-08-15T02:46:22.127Z,1020.57
2023-08-15T02:46:51.688Z,1020.57
2023-08-15T02:47:23.449Z,1020.57
2023-08-15T02:47:54.010Z,1020.57
2023-08-15T02:48:24.907Z,1020.56
2023-08-15T02:48:55.828Z,1020.56
2023-08-15T02:49:25.826Z,1020.56
2023-08-15T02:49:57.755Z,1020.56
2023-08-15T02:50:28.681Z,1020.56
2023-08-15T02:50:59.512Z,1020.56
2023-08-15T02:51:30.435Z,1020.55
2023-08-15T02:52:01.349Z,1020.55
2023-08-15T02:52:32.287Z,1020.55
2023-08-15T02:53:03.216Z,1020.55
2023-08-15T02:53:34.107Z,1020.55
2023-08-15T02:54:03.699Z,1020.55
2023-08-15T02:54:35.644Z,1020.56
2023-08-15T02:55:06.452Z,1020.56
2023-08-15T02:55:37.333Z,1020.56
2023-08-15T02:56:08.236Z,1020.56
2023-08-15T02:56:39.156Z,1020.56
2023-08-15T02:57:10.065Z,1020.56
2023-08-15T02:57:40.982Z,1020.55
2023-08-15T02:58:11.880Z,1020.55
2023-08-15T02:58:42.774Z,1020.54
2023-08-15T02:59:13.730Z,1020.55
2023-08-15T02:59:44.646Z,1020.55
2023-08-15T03:00:15.577Z,1020.55
2023-08-15T03:00:46.527Z,1020.56
2023-08-15T03:01:17.291Z,1020.57
2023-08-15T03:01:48.235Z,1020.58
2023-08-15T03:02:19.162Z,1020.59
2023-08-15T03:02:49.698Z,1020.60
2023-08-15T03:03:20.675Z,1020.61
2023-08-15T03:03:51.556Z,1020.62
2023-08-15T03:04:22.472Z,1020.63
2023-08-15T03:04:53.383Z,1020.63
2023-08-15T03:05:24.334Z,1020.63
2023-08-15T03:05:55.172Z,1020.63
2023-08-15T03:06:26.118Z,1020.62
2023-08-15T03:06:57.035Z,1020.62
2023-08-15T03:07:27.927Z,1020.63
2023-08-15T03:07:57.773Z,1020.63
2023-08-15T03:08:29.679Z,1020.63
2023-08-15T03:09:00.570Z,1020.63
2023-08-15T03:09:31.488Z,1020.63
2023-08-15T03:10:02.404Z,1020.64
2023-08-15T03:10:33.346Z,1020.64
2023-08-15T03:11:02.932Z,1020.64
2023-08-15T03:11:34.375Z,1020.64
2023-08-15T03:12:05.314Z,1020.64
2023-08-15T03:12:36.243Z,1020.64
2023-08-15T03:13:07.152Z,1020.64
2023-08-15T03:13:38.038Z,1020.65
2023-08-15T03:14:08.956Z,1020.65
2023-08-15T03:14:39.878Z,1020.66
2023-08-15T03:15:10.792Z,1020.66
2023-08-15T03:15:41.690Z,1020.66
2023-08-15T03:16:12.657Z,1020.66
2023-08-15T03:16:43.564Z,1020.67
2023-08-15T03:17:14.472Z,1020.68
2023-08-15T03:17:45.397Z,1020.69
2023-08-15T03:18:16.345Z,1020.70
2023-08-15T03:18:47.290Z,1020.70
2023-08-15T03:19:18.189Z,1020.70
2023-08-15T03:19:49.092Z,1020.70
2023-08-15T03:20:20.002Z,1020.70
2023-08-15T03:20:50.928Z,1020.69
2023-08-15T03:21:21.830Z,1020.69
2023-08-15T03:21:52.724Z,1020.69
2023-08-15T03:22:23.683Z,1020.68
2023-08-15T03:22:54.575Z,1020.68
2023-08-15T03:23:25.507Z,1020.68
2023-08-15T03:23:56.429Z,1020.67
2023-08-15T03:24:27.345Z,1020.68
2023-08-15T03:24:56.886Z,1020.68
2023-08-15T03:25:28.855Z,1020.68
2023-08-15T03:25:59.749Z,1020.68
2023-08-15T03:26:30.647Z,1020.67
2023-08-15T03:27:17.902Z,1020.67
2023-08-15T03:27:32.282Z,1020.66
2023-08-15T03:28:03.179Z,1020.66
2023-08-15T03:28:34.091Z,1020.66
2023-08-15T03:29:05.000Z,1020.66
2023-08-15T03:29:35.789Z,1020.67
2023-08-15T03:30:06.707Z,1020.67
2023-08-15T03:30:37.620Z,1020.66
2023-08-15T03:31:08.559Z,1020.66
2023-08-15T03:31:39.477Z,1020.67
2023-08-15T03:32:10.407Z,1020.68
2023-08-15T03:32:41.362Z,1020.68
2023-08-15T03:33:13.157Z,1020.69
2023-08-15T03:33:43.043Z,1020.69
2023-08-15T03:34:13.939Z,1020.70
2023-08-15T03:34:44.817Z,1020.71
2023-08-15T03:35:15.730Z,1020.71
2023-08-15T03:35:46.648Z,1020.71
2023-08-15T03:36:17.453Z,1020.71
2023-08-15T03:36:48.348Z,1020.71
2023-08-15T03:37:19.530Z,1020.70
2023-08-15T03:37:50.178Z,1020.70
2023-08-15T03:38:20.982Z,1020.70
2023-08-15T03:38:51.900Z,1020.69
2023-08-15T03:39:22.814Z,1020.69
2023-08-15T03:39:53.754Z,1020.69
2023-08-15T03:40:24.612Z,1020.68
2023-08-15T03:40:54.202Z,1020.68
2023-08-15T03:41:26.132Z,1020.68
2023-08-15T03:41:57.042Z,1020.68
2023-08-15T03:42:27.926Z,1020.68
2023-08-15T03:42:58.784Z,1020.68
2023-08-15T03:43:29.650Z,1020.68
2023-08-15T03:44:00.497Z,1020.68
2023-08-15T03:44:31.245Z,1020.68
2023-08-15T03:45:02.097Z,1020.68
2023-08-15T03:45:33.071Z,1020.68
2023-08-15T03:46:03.617Z,1020.68
2023-08-15T03:46:34.100Z,1020.69
2023-08-15T03:47:04.568Z,1020.69
2023-08-15T03:47:35.433Z,1020.69
2023-08-15T03:48:06.309Z,1020.69
2023-08-15T03:48:35.936Z,1020.69
2023-08-15T03:49:07.818Z,1020.70
2023-08-15T03:49:38.679Z,1020.72
2023-08-15T03:50:09.598Z,1020.73
2023-08-15T03:50:40.508Z,1020.73
2023-08-15T03:51:15.398Z,1020.74
2023-08-15T03:51:46.925Z,1020.75
2023-08-15T03:52:13.034Z,1020.75
2023-08-15T03:52:43.869Z,1020.76
2023-08-15T03:53:14.697Z,1020.76
2023-08-15T03:53:45.535Z,1020.77
2023-08-15T03:54:16.374Z,1020.77
2023-08-15T03:54:47.213Z,1020.78
2023-08-15T03:55:17.182Z,1020.79
2023-08-15T03:55:49.048Z,1020.80
2023-08-15T03:56:19.891Z,1020.80
2023-08-15T03:56:50.761Z,1020.79
2023-08-15T03:57:20.609Z,1020.78
2023-08-15T03:57:52.091Z,1020.78
2023-08-15T03:58:22.952Z,1020.78
2023-08-15T03:58:53.801Z,1020.77
2023-08-15T03:59:24.674Z,1020.76
2023-08-15T03:59:55.559Z,1020.76
2023-08-15T04:00:26.404Z,1020.75
2023-08-15T04:00:57.277Z,1020.75
2023-08-15T04:01:28.138Z,1020.74
2023-08-15T04:01:59.337Z,1020.74
2023-08-15T04:02:29.858Z,1020.74
2023-08-15T04:03:00.790Z,1020.74
2023-08-15T04:03:31.695Z,1020.74
2023-08-15T04:04:02.636Z,1020.75
2023-08-15T04:04:33.539Z,1020.75
2023-08-15T04:05:04.377Z,1020.76
2023-08-15T04:05:35.235Z,1020.76
2023-08-15T04:06:06.088Z,1020.77
2023-08-15T04:06:36.945Z,1020.77
2023-08-15T04:07:07.853Z,1020.77
2023-08-15T04:07:38.689Z,1020.77
2023-08-15T04:08:09.519Z,1020.78
2023-08-15T04:08:40.377Z,1020.78
2023-08-15T04:09:11.265Z,1020.78
2023-08-15T04:09:42.101Z,1020.78
2023-08-15T04:10:12.941Z,1020.78
2023-08-15T04:10:43.794Z,1020.78
2023-08-15T04:11:14.633Z,1020.79
2023-08-15T04:11:45.483Z,1020.79
2023-08-15T04:12:16.342Z,1020.80
2023-08-15T04:12:46.180Z,1020.81
2023-08-15T04:13:18.105Z,1020.82
2023-08-15T04:13:48.880Z,1020.83
2023-08-15T04:14:19.745Z,1020.84
2023-08-15T04:14:50.628Z,1020.85
2023-08-15T04:15:21.468Z,1020.86
2023-08-15T04:15:52.363Z,1020.87
2023-08-15T04:16:23.136Z,1020.88
2023-08-15T04:16:54.002Z,1020.89
2023-08-15T04:17:24.892Z,1020.89
2023-08-15T04:17:55.756Z,1020.89
2023-08-15T04:18:26.655Z,1020.90
2023-08-15T04:18:57.533Z,1020.90
2023-08-15T04:19:28.363Z,1020.91
2023-08-15T04:19:59.207Z,1020.91
2023-08-15T04:20:29.956Z,1020.91
2023-08-15T04:21:00.868Z,1020.91
2023-08-15T04:21:31.714Z,1020.91
2023-08-15T04:22:02.580Z,1020.92
2023-08-15T04:22:33.464Z,1020.91
2023-08-15T04:23:04.332Z,1020.90
2023-08-15T04:23:35.180Z,1020.90
2023-08-15T04:24:06.028Z,1020.90
2023-08-15T04:24:36.899Z,1020.90
2023-08-15T04:25:07.759Z,1020.90
2023-08-15T04:25:38.593Z,1020.90
2023-08-15T04:26:09.447Z,1020.90
2023-08-15T04:26:40.318Z,1020.90
2023-08-15T04:27:11.158Z,1020.90
2023-08-15T04:27:42.005Z,1020.90
2023-08-15T04:28:12.898Z,1020.91
2023-08-15T04:28:43.728Z,1020.91
2023-08-15T04:29:14.553Z,1020.91
2023-08-15T04:29:46.551Z,1020.91
2023-08-15T04:30:16.372Z,1020.91
2023-08-15T04:30:47.240Z,1020.92
2023-08-15T04:31:18.102Z,1020.92
2023-08-15T04:31:49.011Z,1020.93
2023-08-15T04:32:19.869Z,1020.93
2023-08-15T04:32:49.618Z,1020.93
2023-08-15T04:33:21.015Z,1020.94
2023-08-15T04:33:50.971Z,1020.94
2023-08-15T04:34:22.817Z,1020.94
2023-08-15T04:34:52.389Z,1020.95
2023-08-15T04:35:24.295Z,1020.94
2023-08-15T04:36:24.948Z,1020.94
2023-08-15T04:36:56.809Z,1020.93
2023-08-15T04:37:26.365Z,1020.92
2023-08-15T04:37:57.020Z,1020.92
2023-08-15T04:38:28.879Z,1020.92
2023-08-15T04:38:59.739Z,1020.92
2023-08-15T04:39:30.579Z,1020.92
2023-08-15T04:40:01.337Z,1020.93
2023-08-15T04:40:30.876Z,1020.95
2023-08-15T04:41:02.795Z,1020.96
2023-08-15T04:41:33.641Z,1020.96
2023-08-15T04:42:04.477Z,1020.98
2023-08-15T04:42:35.324Z,1020.98
2023-08-15T04:43:06.188Z,1020.99
2023-08-15T04:43:37.035Z,1020.99
2023-08-15T04:44:07.874Z,1020.99
2023-08-15T04:44:38.709Z,1020.99
2023-08-15T04:45:10.618Z,1020.99
2023-08-15T04:45:40.346Z,1020.99
2023-08-15T04:46:11.284Z,1020.99
2023-08-15T04:46:42.118Z,1020.98
2023-08-15T04:47:12.979Z,1020.98
2023-08-15T04:47:43.860Z,1020.97
2023-08-15T04:48:14.762Z,1020.96
2023-08-15T04:48:45.618Z,1020.96
2023-08-15T04:49:16.440Z,1020.96
2023-08-15T04:49:49.982Z,1020.96
2023-08-15T04:50:18.131Z,1020.96
2023-08-15T04:50:49.006Z,1020.97
2023-08-15T04:51:19.861Z,1020.97
2023-08-15T04:51:50.699Z,1020.98
2023-08-15T04:52:21.533Z,1020.98
2023-08-15T04:52:52.367Z,1020.98
2023-08-15T04:53:23.230Z,1020.99
2023-08-15T04:53:55.198Z,1020.99
2023-08-15T04:54:25.024Z,1021.00
2023-08-15T04:54:55.860Z,1021.01
2023-08-15T04:55:26.694Z,1021.01
2023-08-15T04:55:57.531Z,1021.01
2023-08-15T04:56:28.375Z,1021.01
2023-08-15T04:56:59.243Z,1021.02
2023-08-15T04:57:30.092Z,1021.03
2023-08-15T04:58:00.935Z,1021.03
2023-08-15T04:58:31.785Z,1021.04
2023-08-15T04:59:02.639Z,1021.04
2023-08-15T04:59:32.640Z,1021.04
2023-08-15T05:00:04.533Z,1021.04
2023-08-15T05:00:35.610Z,1021.04
2023-08-15T05:01:06.098Z,1021.04
2023-08-15T05:01:36.952Z,1021.04
2023-08-15T05:02:07.829Z,1021.04
2023-08-15T05:02:38.738Z,1021.05
2023-08-15T05:03:09.646Z,1021.05
2023-08-15T05:03:40.537Z,1021.06
2023-08-15T05:04:11.382Z,1021.06
2023-08-15T05:04:42.235Z,1021.06
2023-08-15T05:05:13.115Z,1021.06
2023-08-15T05:05:44.109Z,1021.06
2023-08-15T05:06:14.520Z,1021.06
2023-08-15T05:06:45.368Z,1021.05
2023-08-15T05:07:16.240Z,1021.05
2023-08-15T05:07:47.115Z,1021.06
2023-08-15T05:08:17.829Z,1021.06
2023-08-15T05:08:48.691Z,1021.06
2023-08-15T05:09:19.569Z,1021.08
2023-08-15T05:09:49.082Z,1021.10
2023-08-15T05:10:20.930Z,1021.12
2023-08-15T05:10:52.003Z,1021.13
2023-08-15T05:11:22.345Z,1021.15
2023-08-15T05:11:53.526Z,1021.17
2023-08-15T05:12:24.053Z,1021.19
2023-08-15T05:12:54.892Z,1021.21
2023-08-15T05:13:25.760Z,1021.23
2023-08-15T05:13:56.596Z,1021.25
2023-08-15T05:14:27.464Z,1021.27
2023-08-15T05:14:58.401Z,1021.29
2023-08-15T05:15:29.181Z,1021.30
2023-08-15T05:15:58.766Z,1021.31
2023-08-15T05:16:30.660Z,1021.33
2023-08-15T05:17:01.528Z,1021.34
2023-08-15T05:17:32.621Z,1021.35
2023-08-15T05:18:03.041Z,1021.35
2023-08-15T05:18:33.887Z,1021.36
2023-08-15T05:19:04.646Z,1021.37
2023-08-15T05:19:35.492Z,1021.38
2023-08-15T05:20:06.376Z,1021.39
2023-08-15T05:20:37.244Z,1021.40
2023-08-15T05:21:08.003Z,1021.42
2023-08-15T05:21:38.850Z,1021.42
2023-08-15T05:22:09.804Z,1021.43
2023-08-15T05:22:40.701Z,1021.44
2023-08-15T05:23:11.619Z,1021.45
2023-08-15T05:23:42.466Z,1021.45
2023-08-15T05:24:13.346Z,1021.45
2023-08-15T05:24:44.108Z,1021.45
2023-08-15T05:25:14.944Z,1021.45
2023-08-15T05:25:45.807Z,1021.45
2023-08-15T05:26:16.647Z,1021.44
2023-08-15T05:26:47.493Z,1021.44
2023-08-15T05:27:18.351Z,1021.44
2023-08-15T05:27:48.863Z,1021.43
2023-08-15T05:28:19.687Z,1021.43
2023-08-15T05:28:50.450Z,1021.43
2023-08-15T05:29:21.305Z,1021.43
2023-08-15T05:29:52.146Z,1021.44
2023-08-15T05:30:22.994Z,1021.45
2023-08-15T05:30:53.854Z,1021.46
2023-08-15T05:31:24.744Z,1021.47
2023-08-15T05:31:55.612Z,1021.48
2023-08-15T05:32:26.538Z,1021.49
2023-08-15T05:32:57.456Z,1021.50
2023-08-15T05:33:28.361Z,1021.50
2023-08-15T05:33:59.195Z,1021.51
2023-08-15T05:34:30.087Z,1021.52
2023-08-15T05:35:00.929Z,1021.52
2023-08-15T05:35:31.760Z,1021.53
2023-08-15T05:36:02.613Z,1021.54
2023-08-15T05:36:33.490Z,1021.55
2023-08-15T05:37:04.388Z,1021.56
2023-08-15T05:37:35.217Z,1021.57
2023-08-15T05:38:06.077Z,1021.57
2023-08-15T05:38:36.918Z,1021.57
2023-08-15T05:39:07.764Z,1021.57
2023-08-15T05:39:38.640Z,1021.56
2023-08-15T05:40:09.495Z,1021.56
2023-08-15T05:40:40.394Z,1021.56
2023-08-15T05:41:11.278Z,1021.55
2023-08-15T05:41:42.131Z,1021.55
2023-08-15T05:42:12.968Z,1021.55
2023-08-15T05:42:43.835Z,1021.55
2023-08-15T05:43:14.710Z,1021.55
2023-08-15T05:43:44.219Z,1021.55
2023-08-15T05:44:16.084Z,1021.56
2023-08-15T05:44:46.991Z,1021.57
2023-08-15T05:45:17.901Z,1021.57
2023-08-15T05:45:48.752Z,1021.57
2023-08-15T05:46:18.290Z,1021.57
2023-08-15T05:46:50.179Z,1021.58
2023-08-15T05:47:21.209Z,1021.58
2023-08-15T05:47:51.789Z,1021.57
2023-08-15T05:48:22.679Z,1021.58
2023-08-15T05:48:53.545Z,1021.58
2023-08-15T05:49:24.410Z,1021.58
2023-08-15T05:49:55.249Z,1021.58
2023-08-15T05:50:26.098Z,1021.58
2023-08-15T05:50:56.961Z,1021.59
2023-08-15T05:51:27.812Z,1021.59
2023-08-15T05:51:58.677Z,1021.60
2023-08-15T05:52:29.545Z,1021.61
2023-08-15T05:53:00.452Z,1021.61
2023-08-15T05:53:31.322Z,1021.62
2023-08-15T05:54:02.171Z,1021.61
2023-08-15T05:54:32.948Z,1021.61
2023-08-15T05:55:03.809Z,1021.61
2023-08-15T05:55:34.663Z,1021.61
2023-08-15T05:56:05.508Z,1021.62
2023-08-15T05:56:36.348Z,1021.62
2023-08-15T05:57:07.188Z,1021.62
2023-08-15T05:57:38.031Z,1021.62
2023-08-15T05:58:08.884Z,1021.62
2023-08-15T05:58:39.726Z,1021.62
2023-08-15T05:59:10.604Z,1021.62
2023-08-15T05:59:41.439Z,1021.63
2023-08-15T06:00:12.278Z,1021.63
2023-08-15T06:00:43.473Z,1021.64
2023-08-15T06:01:13.784Z,1021.65
2023-08-15T06:01:44.639Z,1021.65
2023-08-15T06:02:15.485Z,1021.66
2023-08-15T06:02:47.248Z,1021.66
2023-08-15T06:03:24.780Z,1021.67
2023-08-15T06:03:52.972Z,1021.68
2023-08-15T06:04:18.721Z,1021.69
2023-08-15T06:04:49.581Z,1021.69
2023-08-15T06:05:20.481Z,1021.70
2023-08-15T06:05:51.393Z,1021.70
2023-08-15T06:06:22.306Z,1021.70
2023-08-15T06:06:51.838Z,1021.71
2023-08-15T06:07:23.700Z,1021.71
2023-08-15T06:07:54.541Z,1021.72
2023-08-15T06:08:25.950Z,1021.72
2023-08-15T06:08:56.361Z,1021.72
2023-08-15T06:09:25.881Z,1021.72
2023-08-15T06:09:57.727Z,1021.73
2023-08-15T06:10:28.514Z,1021.73
2023-08-15T06:10:59.373Z,1021.73
2023-08-15T06:11:30.216Z,1021.74
2023-08-15T06:12:01.144Z,1021.74
2023-08-15T06:12:32.010Z,1021.74
2023-08-15T06:13:02.862Z,1021.74
2023-08-15T06:13:33.693Z,1021.74